createdAt,value
2019-04-25T00:02:01.954Z,2.75
2019-04-25T00:04:31.776Z,2.60
2019-04-25T00:07:02.226Z,2.15
2019-04-25T00:09:42.701Z,2.40
2019-04-25T00:12:12.507Z,2.62
2019-04-25T00:14:42.772Z,2.55
2019-04-25T00:17:12.567Z,2.65
2019-04-25T00:19:43.273Z,2.75
2019-04-25T00:22:26.467Z,2.33
2019-04-25T00:25:15.905Z,2.42
2019-04-25T00:27:43.624Z,2.50
2019-04-25T00:30:14.151Z,2.50
2019-04-25T00:32:44.251Z,2.22
2019-04-25T00:35:15.096Z,3.10
2019-04-25T00:37:46.026Z,2.80
2019-04-25T00:40:16.243Z,2.42
2019-04-25T00:42:46.265Z,2.67
2019-04-25T00:45:15.933Z,2.98
2019-04-25T00:47:46.160Z,2.42
2019-04-25T00:50:16.017Z,2.60
2019-04-25T00:52:46.231Z,2.77
2019-04-25T00:55:26.084Z,2.45
2019-04-25T00:57:49.032Z,2.58
2019-04-25T01:00:46.944Z,2.72
2019-04-25T01:03:22.899Z,2.40
2019-04-25T01:05:53.655Z,2.58
2019-04-25T01:08:24.407Z,2.77
2019-04-25T01:10:54.342Z,2.40
2019-04-25T01:13:23.974Z,2.80
2019-04-25T01:15:54.640Z,2.30
2019-04-25T01:18:25.248Z,2.30
2019-04-25T01:20:56.141Z,3.08
2019-04-25T01:23:25.911Z,2.42
2019-04-25T01:25:57.071Z,2.45
2019-04-25T01:28:26.884Z,2.98
2019-04-25T01:30:56.815Z,2.85
2019-04-25T01:33:28.209Z,2.60
2019-04-25T01:36:06.533Z,2.73
2019-04-25T01:38:43.520Z,2.75
2019-04-25T01:41:31.056Z,2.90
2019-04-25T01:44:04.626Z,2.80
2019-04-25T01:46:35.369Z,2.70
2019-04-25T01:49:06.633Z,2.58
2019-04-25T01:51:37.168Z,2.92
2019-04-25T01:54:07.410Z,2.30
2019-04-25T01:56:37.360Z,2.35
2019-04-25T01:59:07.536Z,3.10
2019-04-25T02:01:39.290Z,2.92
2019-04-25T02:04:09.404Z,3.00
2019-04-25T02:06:41.280Z,2.40
2019-04-25T02:09:13.642Z,2.55
2019-04-25T02:11:58.879Z,3.05
2019-04-25T02:14:29.224Z,3.43
2019-04-25T02:17:00.225Z,3.10
2019-04-25T02:19:30.500Z,2.67
2019-04-25T02:22:00.466Z,2.85
2019-04-25T02:24:30.423Z,2.62
2019-04-25T02:27:00.857Z,2.42
2019-04-25T02:29:30.664Z,2.77
2019-04-25T02:32:05.121Z,3.17
2019-04-25T02:34:34.586Z,3.10
2019-04-25T02:37:09.123Z,3.02
2019-04-25T02:39:37.473Z,3.40
2019-04-25T02:42:08.553Z,3.27
2019-04-25T02:44:44.417Z,3.58
2019-04-25T02:47:34.499Z,3.37
2019-04-25T02:50:15.285Z,3.33
2019-04-25T02:52:58.709Z,3.65
2019-04-25T02:55:31.690Z,3.35
2019-04-25T02:58:00.907Z,3.87
2019-04-25T03:00:47.761Z,3.87
2019-04-25T03:03:06.945Z,2.92
2019-04-25T03:05:35.773Z,2.73
2019-04-25T03:08:08.999Z,3.27
2019-04-25T03:10:37.387Z,3.37
2019-04-25T03:13:11.653Z,3.60
2019-04-25T03:15:38.851Z,3.47
2019-04-25T03:18:12.239Z,3.33
2019-04-25T03:20:46.791Z,3.15
2019-04-25T03:23:35.360Z,3.53
2019-04-25T03:26:06.228Z,3.72
2019-04-25T03:28:37.318Z,3.62
2019-04-25T03:31:13.383Z,3.40
2019-04-25T03:33:38.838Z,3.58
2019-04-25T03:36:09.313Z,3.27
2019-04-25T03:38:39.101Z,3.52
2019-04-25T03:41:08.772Z,3.30
2019-04-25T03:43:38.385Z,3.58
2019-04-25T03:46:08.253Z,3.55
2019-04-25T03:48:38.009Z,3.08
2019-04-25T03:51:08.111Z,3.92
2019-04-25T03:53:37.736Z,3.47
2019-04-25T03:56:07.675Z,3.27
2019-04-25T03:58:38.557Z,3.58
2019-04-25T04:01:09.504Z,3.62
2019-04-25T04:03:39.251Z,3.58
2019-04-25T04:06:09.829Z,4.22
2019-04-25T04:08:39.560Z,3.27
2019-04-25T04:11:10.041Z,4.08
2019-04-25T04:13:39.757Z,3.42
2019-04-25T04:16:09.421Z,3.70
2019-04-25T04:18:44.281Z,3.42
2019-04-25T04:21:43.253Z,3.52
2019-04-25T04:24:23.891Z,3.58
2019-04-25T04:27:12.071Z,3.77
2019-04-25T04:29:43.227Z,3.47
2019-04-25T04:32:14.391Z,3.27
2019-04-25T04:34:45.531Z,4.10
2019-04-25T04:37:16.221Z,3.40
2019-04-25T04:39:45.897Z,3.43
2019-04-25T04:42:16.076Z,3.52
2019-04-25T04:44:45.796Z,3.27
2019-04-25T04:47:15.567Z,3.52
2019-04-25T04:49:46.050Z,3.52
2019-04-25T04:52:16.947Z,3.83
2019-04-25T04:54:46.885Z,3.70
2019-04-25T04:57:27.055Z,3.37
2019-04-25T04:59:47.828Z,3.65
2019-04-25T05:02:40.586Z,3.33
2019-04-25T05:05:44.496Z,4.00
2019-04-25T05:08:24.933Z,3.95
2019-04-25T05:10:57.274Z,4.42
2019-04-25T05:13:25.962Z,3.67
2019-04-25T05:15:55.799Z,3.93
2019-04-25T05:18:37.213Z,3.73
2019-04-25T05:20:57.527Z,3.43
2019-04-25T05:23:27.148Z,4.37
2019-04-25T05:25:56.841Z,3.83
2019-04-25T05:28:26.847Z,3.87
2019-04-25T05:31:25.606Z,4.03
2019-04-25T05:33:55.355Z,3.37
2019-04-25T05:36:29.124Z,4.05
2019-04-25T05:38:58.955Z,3.92
2019-04-25T05:41:37.655Z,3.50
2019-04-25T05:44:07.303Z,3.70
2019-04-25T05:46:37.344Z,4.17
2019-04-25T05:49:07.013Z,3.93
2019-04-25T05:51:36.905Z,3.55
2019-04-25T05:54:06.764Z,3.95
2019-04-25T05:56:36.692Z,4.55
2019-04-25T05:59:06.706Z,4.25
2019-04-25T06:01:36.351Z,4.20
2019-04-25T06:04:06.528Z,3.85
2019-04-25T06:06:36.917Z,4.03
2019-04-25T06:09:21.896Z,4.08
2019-04-25T06:12:03.103Z,4.33
2019-04-25T06:14:33.736Z,4.33
2019-04-25T06:17:07.094Z,4.37
2019-04-25T06:19:43.776Z,4.25
2019-04-25T06:22:19.728Z,4.27
2019-04-25T06:24:58.382Z,3.80
2019-04-25T06:27:41.547Z,3.90
2019-04-25T06:30:16.922Z,4.37
2019-04-25T06:32:46.915Z,3.92
2019-04-25T06:35:17.199Z,3.47
2019-04-25T06:37:47.465Z,4.50
2019-04-25T06:40:18.748Z,3.95
2019-04-25T06:42:49.436Z,3.75
2019-04-25T06:45:37.872Z,4.42
2019-04-25T06:48:25.973Z,4.35
2019-04-25T06:50:55.916Z,3.98
2019-04-25T06:53:26.909Z,4.72
2019-04-25T06:55:57.103Z,3.77
2019-04-25T06:58:27.532Z,4.03
2019-04-25T07:01:00.941Z,3.62
2019-04-25T07:03:31.519Z,3.77
2019-04-25T07:06:03.164Z,4.00
2019-04-25T07:08:33.743Z,4.17
2019-04-25T07:11:04.782Z,3.77
2019-04-25T07:13:38.284Z,3.80
2019-04-25T07:16:06.940Z,4.43
2019-04-25T07:18:37.396Z,4.07
2019-04-25T07:21:07.299Z,3.83
2019-04-25T07:23:37.060Z,4.15
2019-04-25T07:26:16.908Z,4.55
2019-04-25T07:29:18.136Z,3.87
2019-04-25T07:32:00.463Z,3.55
2019-04-25T07:34:30.369Z,3.50
2019-04-25T07:37:03.337Z,3.85
2019-04-25T07:39:34.412Z,4.60
2019-04-25T07:42:04.588Z,3.83
2019-04-25T07:44:46.138Z,4.60
2019-04-25T07:47:07.575Z,3.98
2019-04-25T07:49:37.941Z,3.52
2019-04-25T07:52:08.221Z,4.00
2019-04-25T07:54:38.747Z,4.30
2019-04-25T07:57:08.575Z,4.42
2019-04-25T07:59:38.858Z,3.35
2019-04-25T08:02:09.538Z,3.75
2019-04-25T08:04:39.627Z,4.70
2019-04-25T08:07:09.567Z,3.90
2019-04-25T08:09:39.428Z,4.53
2019-04-25T08:12:09.377Z,3.98
2019-04-25T08:14:45.922Z,4.05
2019-04-25T08:17:18.685Z,3.52
2019-04-25T08:19:48.708Z,3.83
2019-04-25T08:22:18.779Z,4.47
2019-04-25T08:24:49.236Z,3.92
2019-04-25T08:27:19.101Z,3.70
2019-04-25T08:29:48.749Z,3.80
2019-04-25T08:32:18.425Z,3.60
2019-04-25T08:34:48.064Z,4.33
2019-04-25T08:37:21.009Z,4.12
2019-04-25T08:39:49.289Z,3.50
2019-04-25T08:42:19.243Z,4.00
2019-04-25T08:44:49.047Z,4.50
2019-04-25T08:47:19.317Z,3.42
2019-04-25T08:49:55.044Z,3.60
2019-04-25T08:52:25.178Z,3.90
2019-04-25T08:55:04.211Z,3.50
2019-04-25T08:57:51.704Z,4.08
2019-04-25T09:00:38.923Z,4.27
2019-04-25T09:03:14.339Z,3.92
2019-04-25T09:05:46.335Z,3.67
2019-04-25T09:08:16.503Z,3.63
2019-04-25T09:10:46.625Z,3.62
2019-04-25T09:13:16.796Z,3.45
2019-04-25T09:15:46.762Z,3.80
2019-04-25T09:18:16.835Z,3.75
2019-04-25T09:20:46.866Z,3.77
2019-04-25T09:23:16.957Z,3.45
2019-04-25T09:25:46.936Z,3.80
2019-04-25T09:28:17.440Z,3.60
2019-04-25T09:30:47.369Z,3.20
2019-04-25T09:33:18.133Z,3.15
2019-04-25T09:35:48.056Z,4.00
2019-04-25T09:38:17.747Z,3.72
2019-04-25T09:40:47.544Z,3.33
2019-04-25T09:43:17.215Z,3.70
2019-04-25T09:46:15.261Z,3.35
2019-04-25T09:49:00.007Z,3.47
2019-04-25T09:51:44.625Z,3.42
2019-04-25T09:54:36.390Z,3.50
2019-04-25T09:57:24.126Z,3.75
2019-04-25T09:59:54.108Z,3.27
2019-04-25T10:02:24.679Z,4.00
2019-04-25T10:04:55.194Z,3.20
2019-04-25T10:07:25.443Z,4.00
2019-04-25T10:09:55.982Z,3.55
2019-04-25T10:12:26.332Z,3.62
2019-04-25T10:15:11.454Z,3.67
2019-04-25T10:17:41.272Z,3.97
2019-04-25T10:20:14.293Z,3.45
2019-04-25T10:22:46.634Z,3.58
2019-04-25T10:28:57.825Z,3.70
2019-04-25T10:31:27.479Z,3.65
2019-04-25T10:33:57.255Z,3.70
2019-04-25T10:36:26.886Z,3.20
2019-04-25T10:39:07.606Z,2.93
2019-04-25T10:41:28.495Z,3.20
2019-04-25T10:43:58.173Z,3.20
2019-04-25T10:46:27.825Z,3.10
2019-04-25T10:48:57.521Z,3.10
2019-04-25T10:51:27.138Z,3.20
2019-04-25T10:53:56.800Z,2.97
2019-04-25T10:56:26.819Z,3.55
2019-04-25T10:58:57.553Z,3.60
2019-04-25T11:01:27.632Z,3.20
2019-04-25T11:04:05.703Z,3.87
2019-04-25T11:06:35.444Z,3.10
2019-04-25T11:09:07.344Z,2.80
2019-04-25T11:11:37.084Z,3.20
2019-04-25T11:14:07.538Z,3.25
2019-04-25T11:16:37.540Z,3.02
2019-04-25T11:19:07.467Z,3.58
2019-04-25T11:21:37.561Z,3.33
2019-04-25T11:24:07.343Z,3.15
2019-04-25T11:26:37.282Z,3.00
2019-04-25T11:29:07.235Z,3.35
2019-04-25T11:31:47.001Z,2.98
2019-04-25T11:34:18.700Z,2.87
2019-04-25T11:36:48.624Z,2.92
2019-04-25T11:39:32.348Z,2.83
2019-04-25T11:42:04.414Z,2.80
2019-04-25T11:44:35.042Z,3.63
2019-04-25T11:47:08.532Z,2.80
2019-04-25T11:49:38.806Z,2.80
2019-04-25T11:52:09.086Z,2.92
2019-04-25T11:54:38.736Z,3.20
2019-04-25T11:57:08.709Z,3.05
2019-04-25T11:59:38.377Z,2.20
2019-04-25T12:02:11.040Z,3.20
2019-04-25T12:04:41.100Z,3.20
2019-04-25T12:07:12.380Z,2.60
2019-04-25T12:09:42.890Z,3.10
2019-04-25T12:12:14.639Z,2.47
2019-04-25T12:14:45.491Z,3.05
2019-04-25T12:17:15.995Z,2.65
2019-04-25T12:19:46.875Z,2.77
2019-04-25T12:22:17.743Z,3.00
2019-04-25T12:24:47.906Z,2.58
2019-04-25T12:27:17.739Z,2.65
2019-04-25T12:29:47.669Z,2.60
2019-04-25T12:32:17.484Z,2.87
2019-04-25T12:34:47.475Z,2.77
2019-04-25T12:37:17.116Z,3.05
2019-04-25T12:39:47.132Z,3.12
2019-04-25T12:42:17.295Z,2.77
2019-04-25T12:45:09.132Z,2.47
2019-04-25T12:47:42.326Z,2.62
2019-04-25T12:50:12.201Z,2.92
2019-04-25T12:52:43.294Z,2.90
2019-04-25T12:55:13.949Z,2.55
2019-04-25T12:57:44.077Z,2.85
2019-04-25T13:00:16.359Z,2.45
2019-04-25T13:02:46.007Z,2.45
2019-04-25T13:05:15.874Z,2.80
2019-04-25T13:07:45.747Z,2.80
2019-04-25T13:10:15.913Z,2.40
2019-04-25T13:12:45.813Z,2.27
2019-04-25T13:15:15.719Z,2.50
2019-04-25T13:17:45.504Z,2.52
2019-04-25T13:20:15.659Z,3.05
2019-04-25T13:22:46.247Z,2.52
2019-04-25T13:25:19.284Z,1.85
2019-04-25T13:28:16.941Z,2.65
2019-04-25T13:31:05.922Z,2.62
2019-04-25T13:33:49.404Z,2.17
2019-04-25T13:36:19.652Z,2.37
2019-04-25T13:38:49.487Z,2.20
2019-04-25T13:41:20.899Z,2.20
2019-04-25T13:43:50.928Z,2.12
2019-04-25T13:46:22.010Z,2.40
2019-04-25T13:48:52.100Z,2.00
2019-04-25T13:51:23.004Z,2.00
2019-04-25T13:53:54.581Z,2.12
2019-04-25T13:56:25.891Z,2.02
2019-04-25T13:58:55.643Z,1.87
2019-04-25T14:01:25.964Z,2.00
2019-04-25T14:03:55.709Z,2.27
2019-04-25T14:06:26.193Z,2.20
2019-04-25T14:08:56.636Z,2.00
2019-04-25T14:11:26.764Z,2.17
2019-04-25T14:13:57.399Z,2.23
2019-04-25T14:17:03.069Z,2.42
2019-04-25T14:19:42.037Z,1.82
2019-04-25T14:22:12.080Z,2.27
2019-04-25T14:24:43.969Z,1.98
2019-04-25T14:27:14.243Z,1.90
2019-04-25T14:29:45.319Z,1.98
2019-04-25T14:32:15.629Z,2.00
2019-04-25T14:34:45.846Z,2.10
2019-04-25T14:37:15.729Z,1.90
2019-04-25T14:39:45.624Z,1.92
2019-04-25T14:42:15.467Z,1.70
2019-04-25T14:44:45.483Z,1.70
2019-04-25T14:47:15.218Z,1.82
2019-04-25T14:49:45.299Z,1.80
2019-04-25T14:52:15.719Z,1.67
2019-04-25T14:55:10.200Z,1.80
2019-04-25T14:57:40.241Z,1.65
2019-04-25T15:00:17.380Z,2.08
2019-04-25T15:02:47.428Z,1.90
2019-04-25T15:05:17.381Z,1.57
2019-04-25T15:07:48.149Z,1.55
2019-04-25T15:10:18.125Z,1.30
2019-04-25T15:12:49.130Z,1.70
2019-04-25T15:15:18.793Z,1.63
2019-04-25T15:17:50.467Z,1.70
2019-04-25T15:20:20.452Z,1.60
2019-04-25T15:22:50.517Z,1.72
2019-04-25T15:25:20.480Z,1.70
2019-04-25T15:27:50.364Z,1.70
2019-04-25T15:30:29.319Z,1.50
2019-04-25T15:32:58.673Z,1.37
2019-04-25T15:35:35.339Z,1.50
2019-04-25T15:38:10.070Z,1.70
2019-04-25T15:41:17.016Z,1.50
2019-04-25T15:44:08.576Z,1.30
2019-04-25T15:46:39.668Z,1.70
2019-04-25T15:49:09.394Z,1.60
2019-04-25T15:51:39.150Z,1.60
2019-04-25T15:54:09.055Z,1.40
2019-04-25T15:56:38.915Z,1.60
2019-04-25T15:59:09.063Z,1.50
2019-04-25T16:01:38.825Z,1.47
2019-04-25T16:04:08.611Z,1.50
2019-04-25T16:06:38.480Z,1.50
2019-04-25T16:09:10.493Z,1.70
2019-04-25T16:11:40.316Z,1.57
2019-04-25T16:14:10.119Z,1.77
2019-04-25T16:16:39.963Z,1.50
2019-04-25T16:19:09.937Z,1.80
2019-04-25T16:21:42.061Z,1.90
2019-04-25T16:24:11.376Z,1.50
2019-04-25T16:26:42.397Z,1.47
2019-04-25T16:29:12.271Z,1.13
2019-04-25T16:31:42.629Z,1.02
2019-04-25T16:34:12.401Z,1.12
2019-04-25T16:36:42.252Z,1.57
2019-04-25T16:39:16.665Z,1.50
2019-04-25T16:41:46.987Z,1.30
2019-04-25T16:44:19.545Z,1.60
2019-04-25T16:47:08.872Z,1.77
2019-04-25T16:49:39.126Z,1.40
2019-04-25T16:52:09.943Z,1.77
2019-04-25T16:54:40.760Z,2.10
2019-04-25T16:57:10.532Z,1.85
2019-04-25T16:59:42.031Z,1.70
2019-04-25T17:02:13.120Z,1.87
2019-04-25T17:04:43.393Z,1.80
2019-04-25T17:07:13.883Z,1.70
2019-04-25T17:09:43.768Z,1.80
2019-04-25T17:12:14.567Z,1.52
2019-04-25T17:15:00.175Z,1.65
2019-04-25T17:17:45.471Z,1.67
2019-04-25T17:20:23.699Z,1.60
2019-04-25T17:22:53.627Z,1.60
2019-04-25T17:25:24.533Z,2.20
2019-04-25T17:27:54.480Z,1.85
2019-04-25T17:30:24.552Z,1.90
2019-04-25T17:33:10.425Z,1.80
2019-04-25T17:36:02.015Z,1.90
2019-04-25T17:38:42.200Z,1.90
2019-04-25T17:41:12.239Z,1.40
2019-04-25T17:43:42.596Z,1.87
2019-04-25T17:46:17.103Z,1.60
2019-04-25T17:48:47.907Z,1.80
2019-04-25T17:51:18.431Z,1.42
2019-04-25T17:53:48.595Z,1.80
2019-04-25T17:56:18.763Z,1.77
2019-04-25T17:58:48.949Z,1.75
2019-04-25T18:01:22.892Z,1.80
2019-04-25T18:03:52.973Z,1.50
2019-04-25T18:06:22.628Z,1.77
2019-04-25T18:08:52.583Z,2.17
2019-04-25T18:11:22.579Z,1.98
2019-04-25T18:13:52.424Z,2.03
2019-04-25T18:16:44.807Z,1.52
2019-04-25T18:19:25.623Z,1.95
2019-04-25T18:21:58.696Z,1.60
2019-04-25T18:25:05.468Z,1.90
2019-04-25T18:27:41.985Z,1.60
2019-04-25T18:30:11.794Z,2.00
2019-04-25T18:32:48.762Z,1.80
2019-04-25T18:35:24.050Z,1.92
2019-04-25T18:38:13.047Z,1.63
2019-04-25T18:41:08.967Z,1.60
2019-04-25T18:43:45.563Z,1.98
2019-04-25T18:46:20.817Z,1.77
2019-04-25T18:48:50.899Z,1.87
2019-04-25T18:51:20.876Z,1.90
2019-04-25T18:54:11.169Z,1.98
2019-04-25T18:57:03.816Z,1.82
2019-04-25T19:00:10.696Z,2.00
2019-04-25T19:02:57.861Z,2.30
2019-04-25T19:05:43.275Z,1.92
2019-04-25T19:08:12.936Z,2.00
2019-04-25T19:10:42.945Z,2.20
2019-04-25T19:13:13.488Z,2.40
2019-04-25T19:15:45.065Z,1.90
2019-04-25T19:18:15.127Z,1.87
2019-04-25T19:20:46.009Z,2.00
2019-04-25T19:23:16.381Z,1.92
2019-04-25T19:25:46.352Z,1.82
2019-04-25T19:28:16.345Z,1.95
2019-04-25T19:30:47.177Z,2.33
2019-04-25T19:33:16.964Z,2.37
2019-04-25T19:35:48.027Z,2.22
2019-04-25T19:38:18.440Z,2.10
2019-04-25T19:41:07.021Z,2.35
2019-04-25T19:43:48.634Z,1.90
2019-04-25T19:46:18.333Z,1.98
2019-04-25T19:48:49.051Z,2.17
2019-04-25T19:51:18.767Z,2.10
2019-04-25T19:53:49.183Z,2.15
2019-04-25T19:56:18.908Z,2.10
2019-04-25T19:58:48.935Z,2.00
2019-04-25T20:01:18.812Z,2.20
2019-04-25T20:03:58.731Z,2.30
2019-04-25T20:06:53.668Z,2.80
2019-04-25T20:09:41.004Z,2.15
2019-04-25T20:12:11.423Z,2.30
2019-04-25T20:14:41.490Z,2.40
2019-04-25T20:17:11.483Z,2.40
2019-04-25T20:19:41.336Z,1.80
2019-04-25T20:22:11.071Z,2.10
2019-04-25T20:24:40.857Z,2.15
2019-04-25T20:27:10.543Z,2.02
2019-04-25T20:29:40.681Z,1.82
2019-04-25T20:32:10.440Z,2.25
2019-04-25T20:34:40.621Z,2.10
2019-04-25T20:37:10.286Z,2.20
2019-04-25T20:39:40.158Z,2.12
2019-04-25T20:42:10.083Z,2.30
2019-04-25T20:44:39.861Z,2.03
2019-04-25T20:47:09.825Z,2.12
2019-04-25T20:49:39.851Z,2.25
2019-04-25T20:52:09.953Z,2.10
2019-04-25T20:54:39.720Z,2.50
2019-04-25T20:57:09.839Z,2.58
2019-04-25T20:59:40.576Z,2.53
2019-04-25T21:02:10.911Z,2.60
2019-04-25T21:04:41.271Z,2.20
2019-04-25T21:07:11.684Z,2.22
2019-04-25T21:09:41.468Z,2.67
2019-04-25T21:12:11.372Z,2.40
2019-04-25T21:15:04.444Z,2.33
2019-04-25T21:17:56.355Z,2.80
2019-04-25T21:20:26.175Z,2.58
2019-04-25T21:22:56.211Z,3.02
2019-04-25T21:25:26.207Z,2.40
2019-04-25T21:27:56.563Z,2.50
2019-04-25T21:30:26.559Z,2.40
2019-04-25T21:32:57.248Z,2.53
2019-04-25T21:35:27.651Z,2.43
2019-04-25T21:37:57.570Z,2.55
2019-04-25T21:40:46.244Z,2.47
2019-04-25T21:43:36.149Z,2.63
2019-04-25T21:46:06.380Z,2.60
2019-04-25T21:48:36.549Z,2.70
2019-04-25T21:51:23.943Z,2.77
2019-04-25T21:53:54.356Z,2.85
2019-04-25T21:56:25.176Z,2.72
2019-04-25T21:58:55.637Z,2.37
2019-04-25T22:01:29.004Z,3.00
2019-04-25T22:03:58.952Z,3.47
2019-04-25T22:06:28.932Z,3.00
2019-04-25T22:08:59.080Z,3.45
2019-04-25T22:11:28.989Z,2.90
2019-04-25T22:13:59.503Z,2.65
2019-04-25T22:16:29.623Z,3.02
2019-04-25T22:18:59.949Z,2.70
2019-04-25T22:21:37.856Z,2.70
2019-04-25T22:24:08.937Z,2.77
2019-04-25T22:26:33.224Z,2.97
2019-04-25T22:29:03.718Z,2.90
2019-04-25T22:31:38.899Z,3.40
2019-04-25T22:34:30.752Z,2.98
2019-04-25T22:37:00.784Z,2.90
2019-04-25T22:39:30.632Z,3.85
2019-04-25T22:42:02.017Z,3.02
2019-04-25T22:44:32.600Z,2.87
2019-04-25T22:47:02.684Z,2.98
2019-04-25T22:49:32.609Z,2.72
2019-04-25T22:52:03.103Z,2.85
2019-04-25T22:54:33.246Z,2.95
2019-04-25T22:57:04.227Z,3.75
2019-04-25T22:59:34.516Z,3.05
2019-04-25T23:02:15.272Z,3.08
2019-04-25T23:05:15.872Z,3.25
2019-04-25T23:07:45.196Z,2.77
2019-04-25T23:10:15.582Z,3.17
2019-04-25T23:12:45.444Z,3.40
2019-04-25T23:15:15.908Z,3.17
2019-04-25T23:17:46.448Z,3.33
2019-04-25T23:20:16.548Z,3.43
2019-04-25T23:22:46.318Z,3.10
2019-04-25T23:25:18.829Z,2.55
2019-04-25T23:28:06.457Z,2.98
2019-04-25T23:30:54.471Z,3.25
2019-04-25T23:33:24.409Z,3.10
2019-04-25T23:35:54.271Z,3.00
2019-04-25T23:38:23.911Z,3.47
2019-04-25T23:40:53.592Z,3.12
2019-04-25T23:43:23.945Z,3.05
2019-04-25T23:45:55.243Z,3.02
2019-04-25T23:48:25.580Z,2.90
2019-04-25T23:50:55.288Z,3.00
2019-04-25T23:53:25.225Z,2.92
2019-04-25T23:55:54.908Z,3.25
2019-04-25T23:58:24.547Z,2.67
